sensor_id;sensor_type;location;lat;lon;timestamp;temperature;humidity
69677;DHT22;56914;51.058;9.326;2022-08-11T00:01:12;18.00;47.90
69677;DHT22;56914;51.058;9.326;2022-08-11T00:03:41;18.10;48.00
69677;DHT22;56914;51.058;9.326;2022-08-11T00:06:10;18.10;48.00
69677;DHT22;56914;51.058;9.326;2022-08-11T00:08:39;18.00;48.00
69677;DHT22;56914;51.058;9.326;2022-08-11T00:11:08;18.00;48.20
69677;DHT22;56914;51.058;9.326;2022-08-11T00:13:39;18.00;48.30
69677;DHT22;56914;51.058;9.326;2022-08-11T00:16:10;18.00;48.50
69677;DHT22;56914;51.058;9.326;2022-08-11T00:18:39;17.90;48.70
69677;DHT22;56914;51.058;9.326;2022-08-11T00:21:08;17.80;49.00
69677;DHT22;56914;51.058;9.326;2022-08-11T00:23:38;17.70;49.00
69677;DHT22;56914;51.058;9.326;2022-08-11T00:26:08;17.70;49.10
69677;DHT22;56914;51.058;9.326;2022-08-11T00:28:36;17.60;49.20
69677;DHT22;56914;51.058;9.326;2022-08-11T00:31:06;17.60;49.40
69677;DHT22;56914;51.058;9.326;2022-08-11T00:33:36;17.50;49.60
69677;DHT22;56914;51.058;9.326;2022-08-11T00:36:14;17.50;49.90
69677;DHT22;56914;51.058;9.326;2022-08-11T00:38:48;17.40;50.10
69677;DHT22;56914;51.058;9.326;2022-08-11T00:41:28;17.30;50.20
69677;DHT22;56914;51.058;9.326;2022-08-11T00:44:09;17.40;50.30
69677;DHT22;56914;51.058;9.326;2022-08-11T00:46:41;17.30;50.40
69677;DHT22;56914;51.058;9.326;2022-08-11T00:49:15;17.30;50.50
69677;DHT22;56914;51.058;9.326;2022-08-11T00:51:57;17.30;50.60
69677;DHT22;56914;51.058;9.326;2022-08-11T00:57:17;17.30;50.50
69677;DHT22;56914;51.058;9.326;2022-08-11T01:00:05;17.30;50.40
69677;DHT22;56914;51.058;9.326;2022-08-11T01:02:46;17.30;50.30
69677;DHT22;56914;51.058;9.326;2022-08-11T01:16:59;17.00;50.80
69677;DHT22;56914;51.058;9.326;2022-08-11T01:19:42;17.00;51.00
69677;DHT22;56914;51.058;9.326;2022-08-11T01:22:54;17.00;51.20
69677;DHT22;56914;51.058;9.326;2022-08-11T01:25:40;17.00;51.30
69677;DHT22;56914;51.058;9.326;2022-08-11T01:36:53;16.90;51.50
69677;DHT22;56914;51.058;9.326;2022-08-11T01:42:18;16.80;51.70
69677;DHT22;56914;51.058;9.326;2022-08-11T01:45:20;16.70;51.80
69677;DHT22;56914;51.058;9.326;2022-08-11T01:47:55;16.60;52.10
69677;DHT22;56914;51.058;9.326;2022-08-11T01:50:34;16.60;52.20
69677;DHT22;56914;51.058;9.326;2022-08-11T01:53:09;16.50;52.20
69677;DHT22;56914;51.058;9.326;2022-08-11T01:55:41;16.50;52.90
69677;DHT22;56914;51.058;9.326;2022-08-11T01:58:12;16.50;52.40
69677;DHT22;56914;51.058;9.326;2022-08-11T02:00:47;16.50;52.50
69677;DHT22;56914;51.058;9.326;2022-08-11T02:03:19;16.50;52.50
69677;DHT22;56914;51.058;9.326;2022-08-11T02:05:56;16.50;52.50
69677;DHT22;56914;51.058;9.326;2022-08-11T02:08:33;16.50;52.50
69677;DHT22;56914;51.058;9.326;2022-08-11T02:11:14;16.50;52.40
69677;DHT22;56914;51.058;9.326;2022-08-11T02:14:14;16.40;52.40
69677;DHT22;56914;51.058;9.326;2022-08-11T02:16:47;16.40;52.60
69677;DHT22;56914;51.058;9.326;2022-08-11T02:19:19;16.30;52.70
69677;DHT22;56914;51.058;9.326;2022-08-11T02:22:12;16.20;52.80
69677;DHT22;56914;51.058;9.326;2022-08-11T02:25:03;16.10;52.90
69677;DHT22;56914;51.058;9.326;2022-08-11T02:27:35;16.10;53.10
69677;DHT22;56914;51.058;9.326;2022-08-11T02:30:04;16.00;53.00
69677;DHT22;56914;51.058;9.326;2022-08-11T02:32:34;16.00;53.20
69677;DHT22;56914;51.058;9.326;2022-08-11T02:35:22;15.90;53.30
69677;DHT22;56914;51.058;9.326;2022-08-11T02:37:57;15.90;53.40
69677;DHT22;56914;51.058;9.326;2022-08-11T02:40:29;15.90;53.40
69677;DHT22;56914;51.058;9.326;2022-08-11T02:43:05;15.90;53.40
69677;DHT22;56914;51.058;9.326;2022-08-11T02:45:41;15.90;53.60
69677;DHT22;56914;51.058;9.326;2022-08-11T02:48:14;15.80;53.70
69677;DHT22;56914;51.058;9.326;2022-08-11T02:51:05;15.80;53.90
69677;DHT22;56914;51.058;9.326;2022-08-11T02:53:38;15.70;54.10
69677;DHT22;56914;51.058;9.326;2022-08-11T02:56:10;15.70;54.30
69677;DHT22;56914;51.058;9.326;2022-08-11T02:58:41;15.60;54.30
69677;DHT22;56914;51.058;9.326;2022-08-11T03:01:12;15.60;54.30
69677;DHT22;56914;51.058;9.326;2022-08-11T03:03:48;15.60;54.40
69677;DHT22;56914;51.058;9.326;2022-08-11T03:06:23;15.60;54.40
69677;DHT22;56914;51.058;9.326;2022-08-11T03:08:52;15.60;54.30
69677;DHT22;56914;51.058;9.326;2022-08-11T03:11:25;15.60;54.20
69677;DHT22;56914;51.058;9.326;2022-08-11T03:14:16;15.60;54.10
69677;DHT22;56914;51.058;9.326;2022-08-11T03:17:06;15.60;54.00
69677;DHT22;56914;51.058;9.326;2022-08-11T03:19:43;15.60;54.00
69677;DHT22;56914;51.058;9.326;2022-08-11T03:22:16;15.60;54.00
69677;DHT22;56914;51.058;9.326;2022-08-11T03:24:52;15.60;54.10
69677;DHT22;56914;51.058;9.326;2022-08-11T03:27:29;15.60;54.20
69677;DHT22;56914;51.058;9.326;2022-08-11T03:30:05;15.50;54.20
69677;DHT22;56914;51.058;9.326;2022-08-11T03:32:34;15.40;54.40
69677;DHT22;56914;51.058;9.326;2022-08-11T03:35:04;15.40;54.60
69677;DHT22;56914;51.058;9.326;2022-08-11T03:37:37;15.30;54.70
69677;DHT22;56914;51.058;9.326;2022-08-11T03:43:27;15.30;55.00
69677;DHT22;56914;51.058;9.326;2022-08-11T03:46:02;15.30;54.90
69677;DHT22;56914;51.058;9.326;2022-08-11T03:48:36;15.20;54.90
69677;DHT22;56914;51.058;9.326;2022-08-11T03:51:11;15.20;55.00
69677;DHT22;56914;51.058;9.326;2022-08-11T03:53:47;15.10;55.10
69677;DHT22;56914;51.058;9.326;2022-08-11T03:56:35;15.10;55.10
69677;DHT22;56914;51.058;9.326;2022-08-11T03:59:16;15.10;55.10
69677;DHT22;56914;51.058;9.326;2022-08-11T04:07:34;15.20;55.40
69677;DHT22;56914;51.058;9.326;2022-08-11T04:10:24;15.10;55.30
69677;DHT22;56914;51.058;9.326;2022-08-11T04:15:58;15.20;55.30
69677;DHT22;56914;51.058;9.326;2022-08-11T04:18:59;15.10;55.20
69677;DHT22;56914;51.058;9.326;2022-08-11T04:24:31;15.10;55.30
69677;DHT22;56914;51.058;9.326;2022-08-11T04:29:55;15.20;55.80
69677;DHT22;56914;51.058;9.326;2022-08-11T04:32:45;15.20;55.70
69677;DHT22;56914;51.058;9.326;2022-08-11T04:35:25;15.40;55.80
69677;DHT22;56914;51.058;9.326;2022-08-11T04:38:13;15.50;55.80
69677;DHT22;56914;51.058;9.326;2022-08-11T04:43:45;15.70;55.70
69677;DHT22;56914;51.058;9.326;2022-08-11T04:46:48;15.80;55.40
69677;DHT22;56914;51.058;9.326;2022-08-11T04:52:33;16.20;55.40
69677;DHT22;56914;51.058;9.326;2022-08-11T04:58:40;16.70;55.30
69677;DHT22;56914;51.058;9.326;2022-08-11T05:01:30;16.90;55.00
69677;DHT22;56914;51.058;9.326;2022-08-11T05:04:26;17.10;54.70
69677;DHT22;56914;51.058;9.326;2022-08-11T05:07:30;17.40;54.50
69677;DHT22;56914;51.058;9.326;2022-08-11T05:10:11;17.50;54.10
69677;DHT22;56914;51.058;9.326;2022-08-11T05:12:45;17.80;53.90
69677;DHT22;56914;51.058;9.326;2022-08-11T05:15:15;18.00;53.70
69677;DHT22;56914;51.058;9.326;2022-08-11T05:18:12;18.10;53.40
69677;DHT22;56914;51.058;9.326;2022-08-11T05:21:01;18.30;53.30
69677;DHT22;56914;51.058;9.326;2022-08-11T05:23:52;18.40;53.00
69677;DHT22;56914;51.058;9.326;2022-08-11T05:26:43;18.60;52.80
69677;DHT22;56914;51.058;9.326;2022-08-11T05:29:38;18.70;52.70
69677;DHT22;56914;51.058;9.326;2022-08-11T05:32:24;18.90;53.30
69677;DHT22;56914;51.058;9.326;2022-08-11T05:35:11;18.90;52.40
69677;DHT22;56914;51.058;9.326;2022-08-11T05:38:02;19.00;52.30
69677;DHT22;56914;51.058;9.326;2022-08-11T05:40:48;19.20;51.90
69677;DHT22;56914;51.058;9.326;2022-08-11T05:43:38;19.40;51.60
69677;DHT22;56914;51.058;9.326;2022-08-11T05:46:44;19.60;51.30
69677;DHT22;56914;51.058;9.326;2022-08-11T05:49:31;19.80;50.80
69677;DHT22;56914;51.058;9.326;2022-08-11T05:52:24;19.80;50.50
69677;DHT22;56914;51.058;9.326;2022-08-11T05:55:12;20.00;50.50
69677;DHT22;56914;51.058;9.326;2022-08-11T05:57:58;20.20;50.20
69677;DHT22;56914;51.058;9.326;2022-08-11T06:00:29;20.40;49.80
69677;DHT22;56914;51.058;9.326;2022-08-11T06:02:57;20.60;49.70
69677;DHT22;56914;51.058;9.326;2022-08-11T06:05:31;20.60;49.60
69677;DHT22;56914;51.058;9.326;2022-08-11T06:08:09;20.90;49.30
69677;DHT22;56914;51.058;9.326;2022-08-11T06:10:38;21.10;48.70
69677;DHT22;56914;51.058;9.326;2022-08-11T06:13:07;21.50;48.20
69677;DHT22;56914;51.058;9.326;2022-08-11T06:15:44;21.50;47.70
69677;DHT22;56914;51.058;9.326;2022-08-11T06:18:12;21.70;47.70
69677;DHT22;56914;51.058;9.326;2022-08-11T06:20:44;21.90;47.30
69677;DHT22;56914;51.058;9.326;2022-08-11T06:23:13;22.10;47.00
69677;DHT22;56914;51.058;9.326;2022-08-11T06:25:43;22.30;46.70
69677;DHT22;56914;51.058;9.326;2022-08-11T06:28:11;22.50;46.20
69677;DHT22;56914;51.058;9.326;2022-08-11T06:30:47;22.70;46.10
69677;DHT22;56914;51.058;9.326;2022-08-11T06:33:17;23.00;45.70
69677;DHT22;56914;51.058;9.326;2022-08-11T06:35:46;23.20;45.30
69677;DHT22;56914;51.058;9.326;2022-08-11T06:38:19;23.40;45.20
69677;DHT22;56914;51.058;9.326;2022-08-11T06:40:52;23.50;45.00
69677;DHT22;56914;51.058;9.326;2022-08-11T06:43:38;23.60;44.60
69677;DHT22;56914;51.058;9.326;2022-08-11T06:46:24;23.80;44.50
69677;DHT22;56914;51.058;9.326;2022-08-11T06:48:53;24.10;44.00
69677;DHT22;56914;51.058;9.326;2022-08-11T06:51:22;24.10;43.80
69677;DHT22;56914;51.058;9.326;2022-08-11T06:53:51;24.20;43.70
69677;DHT22;56914;51.058;9.326;2022-08-11T06:56:31;24.40;43.50
69677;DHT22;56914;51.058;9.326;2022-08-11T06:59:37;24.50;43.10
69677;DHT22;56914;51.058;9.326;2022-08-11T07:02:26;24.70;42.80
69677;DHT22;56914;51.058;9.326;2022-08-11T07:04:58;25.00;42.30
69677;DHT22;56914;51.058;9.326;2022-08-11T07:07:44;25.10;41.40
69677;DHT22;56914;51.058;9.326;2022-08-11T07:10:59;25.10;41.10
69677;DHT22;56914;51.058;9.326;2022-08-11T07:13:49;25.30;40.60
69677;DHT22;56914;51.058;9.326;2022-08-11T07:16:36;25.40;40.00
69677;DHT22;56914;51.058;9.326;2022-08-11T07:19:07;25.50;40.00
69677;DHT22;56914;51.058;9.326;2022-08-11T07:21:53;25.80;39.80
69677;DHT22;56914;51.058;9.326;2022-08-11T07:24:41;26.10;39.30
69677;DHT22;56914;51.058;9.326;2022-08-11T07:27:30;26.30;39.10
69677;DHT22;56914;51.058;9.326;2022-08-11T07:30:17;26.50;38.60
69677;DHT22;56914;51.058;9.326;2022-08-11T07:32:47;26.70;38.40
69677;DHT22;56914;51.058;9.326;2022-08-11T07:35:19;26.90;38.40
69677;DHT22;56914;51.058;9.326;2022-08-11T07:37:50;27.00;38.20
69677;DHT22;56914;51.058;9.326;2022-08-11T07:40:28;27.00;37.70
69677;DHT22;56914;51.058;9.326;2022-08-11T07:42:56;26.90;37.30
69677;DHT22;56914;51.058;9.326;2022-08-11T07:45:26;27.00;37.40
69677;DHT22;56914;51.058;9.326;2022-08-11T07:48:12;27.00;37.40
69677;DHT22;56914;51.058;9.326;2022-08-11T07:51:00;27.30;37.00
69677;DHT22;56914;51.058;9.326;2022-08-11T07:53:46;27.40;36.80
69677;DHT22;56914;51.058;9.326;2022-08-11T07:56:33;27.50;36.60
69677;DHT22;56914;51.058;9.326;2022-08-11T07:59:21;27.70;36.80
69677;DHT22;56914;51.058;9.326;2022-08-11T08:02:27;28.10;36.50
69677;DHT22;56914;51.058;9.326;2022-08-11T08:05:13;28.40;36.30
69677;DHT22;56914;51.058;9.326;2022-08-11T08:08:01;28.40;36.20
69677;DHT22;56914;51.058;9.326;2022-08-11T08:10:46;28.70;35.90
69677;DHT22;56914;51.058;9.326;2022-08-11T08:13:32;28.90;35.50
69677;DHT22;56914;51.058;9.326;2022-08-11T08:16:18;29.00;35.30
69677;DHT22;56914;51.058;9.326;2022-08-11T08:19:04;29.20;34.90
69677;DHT22;56914;51.058;9.326;2022-08-11T08:21:32;29.30;35.00
69677;DHT22;56914;51.058;9.326;2022-08-11T08:24:04;29.60;34.70
69677;DHT22;56914;51.058;9.326;2022-08-11T08:26:35;29.70;34.50
69677;DHT22;56914;51.058;9.326;2022-08-11T08:29:21;29.70;34.40
69677;DHT22;56914;51.058;9.326;2022-08-11T08:32:06;30.10;34.30
69677;DHT22;56914;51.058;9.326;2022-08-11T08:34:36;30.40;34.00
69677;DHT22;56914;51.058;9.326;2022-08-11T08:37:06;30.60;33.60
69677;DHT22;56914;51.058;9.326;2022-08-11T08:39:55;30.70;33.40
69677;DHT22;56914;51.058;9.326;2022-08-11T08:42:25;31.00;33.20
69677;DHT22;56914;51.058;9.326;2022-08-11T08:44:56;31.30;33.00
69677;DHT22;56914;51.058;9.326;2022-08-11T08:47:25;31.50;32.50
69677;DHT22;56914;51.058;9.326;2022-08-11T08:50:09;31.60;32.40
69677;DHT22;56914;51.058;9.326;2022-08-11T08:52:59;31.70;32.20
69677;DHT22;56914;51.058;9.326;2022-08-11T08:55:30;31.70;32.10
69677;DHT22;56914;51.058;9.326;2022-08-11T08:57:59;31.70;31.90
69677;DHT22;56914;51.058;9.326;2022-08-11T09:00:28;31.70;31.70
69677;DHT22;56914;51.058;9.326;2022-08-11T09:03:04;31.80;31.40
69677;DHT22;56914;51.058;9.326;2022-08-11T09:05:52;31.80;31.40
69677;DHT22;56914;51.058;9.326;2022-08-11T09:08:21;32.00;31.20
69677;DHT22;56914;51.058;9.326;2022-08-11T09:10:50;32.20;31.00
69677;DHT22;56914;51.058;9.326;2022-08-11T09:13:39;32.20;30.00
69677;DHT22;56914;51.058;9.326;2022-08-11T09:16:07;32.20;30.50
69677;DHT22;56914;51.058;9.326;2022-08-11T09:18:36;32.10;30.30
69677;DHT22;56914;51.058;9.326;2022-08-11T09:21:04;32.10;30.00
69677;DHT22;56914;51.058;9.326;2022-08-11T09:23:33;32.20;30.00
69677;DHT22;56914;51.058;9.326;2022-08-11T09:26:41;32.40;30.00
69677;DHT22;56914;51.058;9.326;2022-08-11T09:29:29;32.70;30.00
69677;DHT22;56914;51.058;9.326;2022-08-11T09:31:58;33.20;29.80
69677;DHT22;56914;51.058;9.326;2022-08-11T09:34:26;33.40;29.00
69677;DHT22;56914;51.058;9.326;2022-08-11T09:36:55;33.60;29.00
69677;DHT22;56914;51.058;9.326;2022-08-11T09:40:15;33.70;28.60
69677;DHT22;56914;51.058;9.326;2022-08-11T09:42:57;33.70;28.00
69677;DHT22;56914;51.058;9.326;2022-08-11T09:45:43;33.80;28.10
69677;DHT22;56914;51.058;9.326;2022-08-11T09:48:17;33.80;28.10
69677;DHT22;56914;51.058;9.326;2022-08-11T09:50:45;33.80;28.00
69677;DHT22;56914;51.058;9.326;2022-08-11T09:53:15;33.80;28.00
69677;DHT22;56914;51.058;9.326;2022-08-11T09:56:01;33.80;27.90
69677;DHT22;56914;51.058;9.326;2022-08-11T09:58:51;33.90;27.60
69677;DHT22;56914;51.058;9.326;2022-08-11T10:01:20;33.90;26.90
69677;DHT22;56914;51.058;9.326;2022-08-11T10:03:58;33.90;26.20
69677;DHT22;56914;51.058;9.326;2022-08-11T10:06:29;34.00;26.40
69677;DHT22;56914;51.058;9.326;2022-08-11T10:09:21;34.10;26.30
69677;DHT22;56914;51.058;9.326;2022-08-11T10:11:51;34.10;25.30
69677;DHT22;56914;51.058;9.326;2022-08-11T10:14:25;33.90;25.40
69677;DHT22;56914;51.058;9.326;2022-08-11T10:17:10;33.80;25.60
69677;DHT22;56914;51.058;9.326;2022-08-11T10:19:41;33.90;25.90
69677;DHT22;56914;51.058;9.326;2022-08-11T10:22:30;33.90;25.70
69677;DHT22;56914;51.058;9.326;2022-08-11T10:25:16;34.00;25.50
69677;DHT22;56914;51.058;9.326;2022-08-11T10:28:02;33.90;25.60
69677;DHT22;56914;51.058;9.326;2022-08-11T10:30:51;33.80;25.70
69677;DHT22;56914;51.058;9.326;2022-08-11T10:33:39;34.00;25.90
69677;DHT22;56914;51.058;9.326;2022-08-11T10:36:25;34.40;25.50
69677;DHT22;56914;51.058;9.326;2022-08-11T10:38:54;34.30;25.70
69677;DHT22;56914;51.058;9.326;2022-08-11T10:41:22;34.30;25.80
69677;DHT22;56914;51.058;9.326;2022-08-11T10:44:28;34.50;25.90
69677;DHT22;56914;51.058;9.326;2022-08-11T10:47:01;34.80;25.60
69677;DHT22;56914;51.058;9.326;2022-08-11T10:49:46;34.70;24.70
69677;DHT22;56914;51.058;9.326;2022-08-11T10:52:35;34.50;24.80
69677;DHT22;56914;51.058;9.326;2022-08-11T10:55:20;34.60;24.70
69677;DHT22;56914;51.058;9.326;2022-08-11T10:58:07;34.80;24.90
69677;DHT22;56914;51.058;9.326;2022-08-11T11:00:53;34.80;24.50
69677;DHT22;56914;51.058;9.326;2022-08-11T11:03:24;34.90;24.30
69677;DHT22;56914;51.058;9.326;2022-08-11T11:05:52;34.80;24.00
69677;DHT22;56914;51.058;9.326;2022-08-11T11:08:41;34.60;23.80
69677;DHT22;56914;51.058;9.326;2022-08-11T11:11:29;34.40;24.10
69677;DHT22;56914;51.058;9.326;2022-08-11T11:14:18;34.40;24.30
69677;DHT22;56914;51.058;9.326;2022-08-11T11:17:27;34.40;24.30
69677;DHT22;56914;51.058;9.326;2022-08-11T11:20:16;34.40;24.50
69677;DHT22;56914;51.058;9.326;2022-08-11T11:23:05;34.40;24.30
69677;DHT22;56914;51.058;9.326;2022-08-11T11:25:35;34.50;24.40
69677;DHT22;56914;51.058;9.326;2022-08-11T11:28:09;34.70;24.60
69677;DHT22;56914;51.058;9.326;2022-08-11T11:30:41;35.10;23.90
69677;DHT22;56914;51.058;9.326;2022-08-11T11:33:15;34.90;24.10
69677;DHT22;56914;51.058;9.326;2022-08-11T11:35:51;35.00;24.10
69677;DHT22;56914;51.058;9.326;2022-08-11T11:38:22;35.20;24.30
69677;DHT22;56914;51.058;9.326;2022-08-11T11:40:50;35.40;24.10
69677;DHT22;56914;51.058;9.326;2022-08-11T11:43:33;35.30;23.90
69677;DHT22;56914;51.058;9.326;2022-08-11T11:46:02;35.20;24.00
69677;DHT22;56914;51.058;9.326;2022-08-11T11:48:32;35.10;24.10
69677;DHT22;56914;51.058;9.326;2022-08-11T11:51:02;35.10;24.10
69677;DHT22;56914;51.058;9.326;2022-08-11T11:53:30;35.20;24.10
69677;DHT22;56914;51.058;9.326;2022-08-11T11:55:58;35.40;24.20
69677;DHT22;56914;51.058;9.326;2022-08-11T11:58:26;35.70;24.30
69677;DHT22;56914;51.058;9.326;2022-08-11T12:01:12;36.10;24.00
69677;DHT22;56914;51.058;9.326;2022-08-11T12:03:45;36.00;23.60
69677;DHT22;56914;51.058;9.326;2022-08-11T12:06:16;35.90;23.80
69677;DHT22;56914;51.058;9.326;2022-08-11T12:08:44;35.80;23.90
69677;DHT22;56914;51.058;9.326;2022-08-11T12:11:15;35.70;23.80
69677;DHT22;56914;51.058;9.326;2022-08-11T12:14:02;35.60;24.10
69677;DHT22;56914;51.058;9.326;2022-08-11T12:16:36;35.40;23.90
69677;DHT22;56914;51.058;9.326;2022-08-11T12:19:05;35.40;24.20
69677;DHT22;56914;51.058;9.326;2022-08-11T12:21:38;35.60;24.20
69677;DHT22;56914;51.058;9.326;2022-08-11T12:24:27;35.80;24.00
69677;DHT22;56914;51.058;9.326;2022-08-11T12:27:13;35.80;24.00
69677;DHT22;56914;51.058;9.326;2022-08-11T12:29:51;35.90;24.40
69677;DHT22;56914;51.058;9.326;2022-08-11T12:32:22;36.00;24.10
69677;DHT22;56914;51.058;9.326;2022-08-11T12:34:51;36.00;23.80
69677;DHT22;56914;51.058;9.326;2022-08-11T12:37:21;36.00;23.90
69677;DHT22;56914;51.058;9.326;2022-08-11T12:39:50;35.90;23.60
69677;DHT22;56914;51.058;9.326;2022-08-11T12:42:58;35.50;23.40
69677;DHT22;56914;51.058;9.326;2022-08-11T12:45:47;35.30;23.40
69677;DHT22;56914;51.058;9.326;2022-08-11T12:48:17;35.10;23.70
69677;DHT22;56914;51.058;9.326;2022-08-11T12:51:24;35.20;23.70
69677;DHT22;56914;51.058;9.326;2022-08-11T12:54:32;35.40;23.80
69677;DHT22;56914;51.058;9.326;2022-08-11T12:57:02;35.40;23.30
69677;DHT22;56914;51.058;9.326;2022-08-11T13:00:03;35.10;23.50
69677;DHT22;56914;51.058;9.326;2022-08-11T13:02:49;35.20;23.60
69677;DHT22;56914;51.058;9.326;2022-08-11T13:05:34;35.30;23.40
69677;DHT22;56914;51.058;9.326;2022-08-11T13:08:10;35.30;23.50
69677;DHT22;56914;51.058;9.326;2022-08-11T13:10:42;35.40;23.70
69677;DHT22;56914;51.058;9.326;2022-08-11T13:13:28;35.50;23.70
69677;DHT22;56914;51.058;9.326;2022-08-11T13:16:16;35.60;23.40
69677;DHT22;56914;51.058;9.326;2022-08-11T13:18:46;35.50;22.80
69677;DHT22;56914;51.058;9.326;2022-08-11T13:21:15;35.30;22.90
69677;DHT22;56914;51.058;9.326;2022-08-11T13:23:47;35.40;23.10
69677;DHT22;56914;51.058;9.326;2022-08-11T13:26:29;35.40;23.20
69677;DHT22;56914;51.058;9.326;2022-08-11T13:29:19;35.60;22.60
69677;DHT22;56914;51.058;9.326;2022-08-11T13:31:47;35.40;22.50
69677;DHT22;56914;51.058;9.326;2022-08-11T13:34:14;35.10;23.30
69677;DHT22;56914;51.058;9.326;2022-08-11T13:36:43;34.90;22.80
69677;DHT22;56914;51.058;9.326;2022-08-11T13:39:12;34.80;23.00
69677;DHT22;56914;51.058;9.326;2022-08-11T13:41:42;35.10;23.60
69677;DHT22;56914;51.058;9.326;2022-08-11T13:44:14;35.40;23.20
69677;DHT22;56914;51.058;9.326;2022-08-11T13:46:50;35.60;23.00
69677;DHT22;56914;51.058;9.326;2022-08-11T13:49:19;35.60;23.00
69677;DHT22;56914;51.058;9.326;2022-08-11T13:51:48;35.40;22.60
69677;DHT22;56914;51.058;9.326;2022-08-11T13:54:17;35.30;22.40
69677;DHT22;56914;51.058;9.326;2022-08-11T13:56:48;35.30;22.90
69677;DHT22;56914;51.058;9.326;2022-08-11T13:59:18;35.30;22.90
69677;DHT22;56914;51.058;9.326;2022-08-11T14:01:56;35.30;23.00
69677;DHT22;56914;51.058;9.326;2022-08-11T14:04:48;35.30;22.90
69677;DHT22;56914;51.058;9.326;2022-08-11T14:07:18;35.30;23.00
69677;DHT22;56914;51.058;9.326;2022-08-11T14:09:47;35.40;23.00
69677;DHT22;56914;51.058;9.326;2022-08-11T14:12:24;35.60;23.10
69677;DHT22;56914;51.058;9.326;2022-08-11T14:15:13;35.60;22.80
69677;DHT22;56914;51.058;9.326;2022-08-11T14:17:46;35.60;23.10
69677;DHT22;56914;51.058;9.326;2022-08-11T14:20:16;35.60;22.90
69677;DHT22;56914;51.058;9.326;2022-08-11T14:23:04;35.60;22.90
69677;DHT22;56914;51.058;9.326;2022-08-11T14:25:32;35.50;22.90
69677;DHT22;56914;51.058;9.326;2022-08-11T14:28:21;35.30;23.00
69677;DHT22;56914;51.058;9.326;2022-08-11T14:31:00;35.10;23.10
69677;DHT22;56914;51.058;9.326;2022-08-11T14:33:29;35.10;23.20
69677;DHT22;56914;51.058;9.326;2022-08-11T14:36:22;35.10;23.20
69677;DHT22;56914;51.058;9.326;2022-08-11T14:38:51;35.40;23.10
69677;DHT22;56914;51.058;9.326;2022-08-11T14:41:20;35.40;23.10
69677;DHT22;56914;51.058;9.326;2022-08-11T14:44:28;35.60;23.00
69677;DHT22;56914;51.058;9.326;2022-08-11T14:47:14;35.40;23.00
69677;DHT22;56914;51.058;9.326;2022-08-11T14:49:50;35.40;23.20
69677;DHT22;56914;51.058;9.326;2022-08-11T14:52:38;35.30;23.30
69677;DHT22;56914;51.058;9.326;2022-08-11T14:55:10;35.20;23.30
69677;DHT22;56914;51.058;9.326;2022-08-11T14:57:56;35.10;23.30
69677;DHT22;56914;51.058;9.326;2022-08-11T15:00:26;35.10;23.60
69677;DHT22;56914;51.058;9.326;2022-08-11T15:02:54;35.10;23.70
69677;DHT22;56914;51.058;9.326;2022-08-11T15:05:40;35.40;23.40
69677;DHT22;56914;51.058;9.326;2022-08-11T15:08:24;35.40;23.10
69677;DHT22;56914;51.058;9.326;2022-08-11T15:11:07;35.30;23.10
69677;DHT22;56914;51.058;9.326;2022-08-11T15:13:55;35.20;23.20
69677;DHT22;56914;51.058;9.326;2022-08-11T15:16:26;35.30;23.20
69677;DHT22;56914;51.058;9.326;2022-08-11T15:19:12;35.40;23.20
69677;DHT22;56914;51.058;9.326;2022-08-11T15:21:41;35.40;23.20
69677;DHT22;56914;51.058;9.326;2022-08-11T15:24:29;35.30;22.80
69677;DHT22;56914;51.058;9.326;2022-08-11T15:26:59;35.20;23.10
69677;DHT22;56914;51.058;9.326;2022-08-11T15:29:44;35.00;23.10
69677;DHT22;56914;51.058;9.326;2022-08-11T15:33:00;34.80;23.30
69677;DHT22;56914;51.058;9.326;2022-08-11T15:35:47;34.70;23.20
69677;DHT22;56914;51.058;9.326;2022-08-11T15:38:33;34.60;23.40
69677;DHT22;56914;51.058;9.326;2022-08-11T15:41:02;34.70;24.00
69677;DHT22;56914;51.058;9.326;2022-08-11T15:43:50;34.70;23.40
69677;DHT22;56914;51.058;9.326;2022-08-11T15:46:43;34.80;23.50
69677;DHT22;56914;51.058;9.326;2022-08-11T15:49:13;34.90;23.40
69677;DHT22;56914;51.058;9.326;2022-08-11T15:51:48;34.80;23.30
69677;DHT22;56914;51.058;9.326;2022-08-11T15:54:18;34.70;23.30
69677;DHT22;56914;51.058;9.326;2022-08-11T15:56:48;34.60;23.40
69677;DHT22;56914;51.058;9.326;2022-08-11T15:59:17;34.60;23.40
69677;DHT22;56914;51.058;9.326;2022-08-11T16:02:10;34.40;23.50
69677;DHT22;56914;51.058;9.326;2022-08-11T16:04:59;34.30;23.50
69677;DHT22;56914;51.058;9.326;2022-08-11T16:07:30;34.10;23.50
69677;DHT22;56914;51.058;9.326;2022-08-11T16:10:07;34.10;23.80
69677;DHT22;56914;51.058;9.326;2022-08-11T16:12:44;34.10;23.60
69677;DHT22;56914;51.058;9.326;2022-08-11T16:15:44;34.20;23.60
69677;DHT22;56914;51.058;9.326;2022-08-11T16:18:30;34.40;23.60
69677;DHT22;56914;51.058;9.326;2022-08-11T16:21:09;34.40;23.40
69677;DHT22;56914;51.058;9.326;2022-08-11T16:23:58;34.40;23.30
69677;DHT22;56914;51.058;9.326;2022-08-11T16:26:26;34.30;23.20
69677;DHT22;56914;51.058;9.326;2022-08-11T16:29:16;34.10;23.30
69677;DHT22;56914;51.058;9.326;2022-08-11T16:31:44;34.00;23.40
69677;DHT22;56914;51.058;9.326;2022-08-11T16:34:33;33.90;23.60
69677;DHT22;56914;51.058;9.326;2022-08-11T16:37:21;33.90;23.70
69677;DHT22;56914;51.058;9.326;2022-08-11T16:40:07;33.90;23.80
69677;DHT22;56914;51.058;9.326;2022-08-11T16:42:37;33.80;23.70
69677;DHT22;56914;51.058;9.326;2022-08-11T16:45:36;33.70;23.80
69677;DHT22;56914;51.058;9.326;2022-08-11T16:48:22;33.70;23.90
69677;DHT22;56914;51.058;9.326;2022-08-11T16:51:04;33.70;23.80
69677;DHT22;56914;51.058;9.326;2022-08-11T16:53:33;33.60;23.80
69677;DHT22;56914;51.058;9.326;2022-08-11T16:56:24;33.60;24.00
69677;DHT22;56914;51.058;9.326;2022-08-11T16:58:54;33.60;23.90
69677;DHT22;56914;51.058;9.326;2022-08-11T17:01:42;33.50;23.90
69677;DHT22;56914;51.058;9.326;2022-08-11T17:04:13;33.40;24.10
69677;DHT22;56914;51.058;9.326;2022-08-11T17:06:59;33.30;24.10
69677;DHT22;56914;51.058;9.326;2022-08-11T17:10:14;33.20;24.00
69677;DHT22;56914;51.058;9.326;2022-08-11T17:13:20;33.10;24.10
69677;DHT22;56914;51.058;9.326;2022-08-11T17:15:49;33.00;24.10
69677;DHT22;56914;51.058;9.326;2022-08-11T17:18:46;33.00;24.20
69677;DHT22;56914;51.058;9.326;2022-08-11T17:21:16;33.00;24.30
69677;DHT22;56914;51.058;9.326;2022-08-11T17:23:46;32.90;24.20
69677;DHT22;56914;51.058;9.326;2022-08-11T17:26:20;32.80;24.40
69677;DHT22;56914;51.058;9.326;2022-08-11T17:28:50;32.90;24.40
69677;DHT22;56914;51.058;9.326;2022-08-11T17:31:19;32.80;24.50
69677;DHT22;56914;51.058;9.326;2022-08-11T17:34:06;32.80;24.50
69677;DHT22;56914;51.058;9.326;2022-08-11T17:36:53;32.70;24.50
69677;DHT22;56914;51.058;9.326;2022-08-11T17:39:23;32.60;24.30